Overview Statistics Trail Chart Weather Telemetry Raw packets
 

This is the latest recevied weather packets stored in our database for station/object 9A7DI-13. If no packets are shown the sender has not sent any weather packets the latest 10 day(s).

<< 1 2 3 4 5 6 >>
Time Temp. Humidity Pressure Rain* Wind** Luminosity Snow
1788641799 20° C 67% 1030.7 hPa - - - -
1788641199 20° C 67% 1030.6 hPa - - - -
1788640599 20° C 66% 1030.5 hPa - - - -
1788639999 19.44° C 68% 1030.4 hPa - - - -
1788639399 20° C 65% 1030.3 hPa - - - -
1788638799 20.56° C 61% 1030.2 hPa - - - -
1788638199 20.56° C 61% 1030 hPa - - - -
1788637599 20.56° C 61% 1029.9 hPa - - - -
1788636999 21.11° C 62% 1029.9 hPa - - - -
1788636399 21.11° C 62% 1029.7 hPa - - - -
1788635799 21.11° C 57% 1029.6 hPa - - - -
1788635199 21.11° C 61% 1029.5 hPa - - - -
1788634599 21.67° C 55% 1029.4 hPa - - - -
1788633999 21.67° C 56% 1029.4 hPa - - - -
1788633399 22.22° C 53% 1029.2 hPa - - - -
1788632799 22.22° C 54% 1029 hPa - - - -
1788632199 22.22° C 52% 1029 hPa - - - -
1788631599 21.67° C 55% 1028.8 hPa - - - -
1788630999 22.78° C 51% 1028.6 hPa - - - -
1788630399 23.33° C 48% 1028.4 hPa - - - -
1788629799 23.89° C 44% 1028.2 hPa - - - -
1788629199 23.89° C 43% 1028.3 hPa - - - -
1788628599 24.44° C 42% 1028.2 hPa - - - -
1788627999 24.44° C 40% 1028.1 hPa - - - -
1788627399 25° C 40% 1028 hPa - - - -

* Rain since midnight (hover to see other rain measurements)
** Current wind speed in m/s (hover to see current wind gust speed)